sensor_id;sensor_type;location;lat;lon;timestamp;P1;durP1;ratioP1;P2;durP2;ratioP2
3943;SDS011;1986;52.546;13.428;2024-01-16T00:00:50;11.27;;;11.17;;
3943;SDS011;1986;52.546;13.428;2024-01-16T00:03:17;10.70;;;10.60;;
3943;SDS011;1986;52.546;13.428;2024-01-16T00:05:45;10.50;;;10.40;;
3943;SDS011;1986;52.546;13.428;2024-01-16T00:08:12;10.30;;;10.20;;
3943;SDS011;1986;52.546;13.428;2024-01-16T00:10:39;10.00;;;9.90;;
3943;SDS011;1986;52.546;13.428;2024-01-16T00:13:06;9.60;;;9.50;;
3943;SDS011;1986;52.546;13.428;2024-01-16T00:15:35;9.30;;;9.20;;
3943;SDS011;1986;52.546;13.428;2024-01-16T00:18:02;9.20;;;9.10;;
3943;SDS011;1986;52.546;13.428;2024-01-16T00:20:31;9.20;;;9.10;;
3943;SDS011;1986;52.546;13.428;2024-01-16T00:23:00;9.40;;;9.30;;
3943;SDS011;1986;52.546;13.428;2024-01-16T00:25:27;9.00;;;8.90;;
3943;SDS011;1986;52.546;13.428;2024-01-16T00:27:54;9.00;;;8.90;;
3943;SDS011;1986;52.546;13.428;2024-01-16T00:30:23;9.00;;;8.90;;
3943;SDS011;1986;52.546;13.428;2024-01-16T00:32:53;8.80;;;8.70;;
3943;SDS011;1986;52.546;13.428;2024-01-16T00:35:20;8.80;;;8.70;;
3943;SDS011;1986;52.546;13.428;2024-01-16T00:37:48;8.80;;;8.70;;
3943;SDS011;1986;52.546;13.428;2024-01-16T00:40:17;8.20;;;8.10;;
3943;SDS011;1986;52.546;13.428;2024-01-16T00:42:47;8.10;;;8.00;;
3943;SDS011;1986;52.546;13.428;2024-01-16T00:45:14;8.10;;;8.00;;
3943;SDS011;1986;52.546;13.428;2024-01-16T00:47:42;7.00;;;7.00;;
3943;SDS011;1986;52.546;13.428;2024-01-16T00:50:12;6.30;;;6.30;;
3943;SDS011;1986;52.546;13.428;2024-01-16T00:52:39;5.40;;;5.40;;
3943;SDS011;1986;52.546;13.428;2024-01-16T00:55:07;4.30;;;4.30;;
3943;SDS011;1986;52.546;13.428;2024-01-16T00:57:34;3.30;;;3.30;;
3943;SDS011;1986;52.546;13.428;2024-01-16T01:00:04;2.47;;;2.47;;
3943;SDS011;1986;52.546;13.428;2024-01-16T01:02:35;2.00;;;2.00;;
3943;SDS011;1986;52.546;13.428;2024-01-16T01:05:02;2.30;;;2.30;;
3943;SDS011;1986;52.546;13.428;2024-01-16T01:07:30;2.10;;;2.10;;
3943;SDS011;1986;52.546;13.428;2024-01-16T01:09:57;1.90;;;1.90;;
3943;SDS011;1986;52.546;13.428;2024-01-16T01:12:25;1.70;;;1.70;;
3943;SDS011;1986;52.546;13.428;2024-01-16T01:14:53;1.73;;;1.73;;
3943;SDS011;1986;52.546;13.428;2024-01-16T01:17:21;1.77;;;1.77;;
3943;SDS011;1986;52.546;13.428;2024-01-16T01:19:48;1.70;;;1.70;;
3943;SDS011;1986;52.546;13.428;2024-01-16T01:22:16;1.80;;;1.80;;
3943;SDS011;1986;52.546;13.428;2024-01-16T01:24:45;1.40;;;1.40;;
3943;SDS011;1986;52.546;13.428;2024-01-16T01:27:12;1.40;;;1.40;;
3943;SDS011;1986;52.546;13.428;2024-01-16T01:29:39;1.10;;;1.10;;
3943;SDS011;1986;52.546;13.428;2024-01-16T01:32:07;1.20;;;1.20;;
3943;SDS011;1986;52.546;13.428;2024-01-16T01:34:35;1.00;;;1.00;;
3943;SDS011;1986;52.546;13.428;2024-01-16T01:37:04;1.00;;;1.00;;
3943;SDS011;1986;52.546;13.428;2024-01-16T01:39:31;0.90;;;0.90;;
3943;SDS011;1986;52.546;13.428;2024-01-16T01:42:01;1.00;;;1.00;;
3943;SDS011;1986;52.546;13.428;2024-01-16T01:44:30;1.00;;;1.00;;
3943;SDS011;1986;52.546;13.428;2024-01-16T01:46:57;0.87;;;0.87;;
3943;SDS011;1986;52.546;13.428;2024-01-16T01:49:25;0.90;;;0.90;;
3943;SDS011;1986;52.546;13.428;2024-01-16T01:51:54;0.80;;;0.80;;
3943;SDS011;1986;52.546;13.428;2024-01-16T01:54:24;0.70;;;0.70;;
3943;SDS011;1986;52.546;13.428;2024-01-16T01:56:54;0.70;;;0.70;;
3943;SDS011;1986;52.546;13.428;2024-01-16T01:59:23;0.60;;;0.60;;
3943;SDS011;1986;52.546;13.428;2024-01-16T02:01:51;0.70;;;0.70;;
3943;SDS011;1986;52.546;13.428;2024-01-16T02:04:19;0.70;;;0.70;;
3943;SDS011;1986;52.546;13.428;2024-01-16T02:06:48;0.70;;;0.70;;
3943;SDS011;1986;52.546;13.428;2024-01-16T02:09:15;0.60;;;0.60;;
3943;SDS011;1986;52.546;13.428;2024-01-16T02:11:43;0.60;;;0.60;;
3943;SDS011;1986;52.546;13.428;2024-01-16T02:14:10;0.60;;;0.60;;
3943;SDS011;1986;52.546;13.428;2024-01-16T02:16:40;0.60;;;0.60;;
3943;SDS011;1986;52.546;13.428;2024-01-16T02:19:09;0.70;;;0.70;;
3943;SDS011;1986;52.546;13.428;2024-01-16T02:21:38;0.80;;;0.80;;
3943;SDS011;1986;52.546;13.428;2024-01-16T02:24:11;0.70;;;0.70;;
3943;SDS011;1986;52.546;13.428;2024-01-16T02:26:39;0.70;;;0.70;;
3943;SDS011;1986;52.546;13.428;2024-01-16T02:29:07;0.60;;;0.60;;
3943;SDS011;1986;52.546;13.428;2024-01-16T02:31:36;0.60;;;0.60;;
3943;SDS011;1986;52.546;13.428;2024-01-16T02:34:04;0.60;;;0.60;;
3943;SDS011;1986;52.546;13.428;2024-01-16T02:36:32;0.60;;;0.60;;
3943;SDS011;1986;52.546;13.428;2024-01-16T02:38:59;0.70;;;0.70;;
3943;SDS011;1986;52.546;13.428;2024-01-16T02:41:27;0.60;;;0.60;;
3943;SDS011;1986;52.546;13.428;2024-01-16T02:43:54;0.70;;;0.70;;
3943;SDS011;1986;52.546;13.428;2024-01-16T02:46:21;0.70;;;0.70;;
3943;SDS011;1986;52.546;13.428;2024-01-16T02:48:48;0.70;;;0.70;;
3943;SDS011;1986;52.546;13.428;2024-01-16T02:51:18;0.80;;;0.80;;
3943;SDS011;1986;52.546;13.428;2024-01-16T02:53:46;0.90;;;0.90;;
3943;SDS011;1986;52.546;13.428;2024-01-16T02:56:15;0.90;;;0.90;;
3943;SDS011;1986;52.546;13.428;2024-01-16T02:58:43;0.90;;;0.90;;
3943;SDS011;1986;52.546;13.428;2024-01-16T03:01:10;1.00;;;1.00;;
3943;SDS011;1986;52.546;13.428;2024-01-16T03:03:37;1.00;;;1.00;;
3943;SDS011;1986;52.546;13.428;2024-01-16T03:06:05;1.30;;;1.30;;
3943;SDS011;1986;52.546;13.428;2024-01-16T03:08:32;1.13;;;1.13;;
3943;SDS011;1986;52.546;13.428;2024-01-16T03:11:00;1.10;;;1.10;;
3943;SDS011;1986;52.546;13.428;2024-01-16T03:13:28;1.30;;;1.30;;
3943;SDS011;1986;52.546;13.428;2024-01-16T03:15:56;1.40;;;1.40;;
3943;SDS011;1986;52.546;13.428;2024-01-16T03:18:23;1.00;;;1.00;;
3943;SDS011;1986;52.546;13.428;2024-01-16T03:20:52;1.10;;;1.10;;
3943;SDS011;1986;52.546;13.428;2024-01-16T03:23:21;1.00;;;1.00;;
3943;SDS011;1986;52.546;13.428;2024-01-16T03:25:49;1.30;;;1.30;;
3943;SDS011;1986;52.546;13.428;2024-01-16T03:28:25;1.10;;;1.10;;
3943;SDS011;1986;52.546;13.428;2024-01-16T03:30:52;1.20;;;1.20;;
3943;SDS011;1986;52.546;13.428;2024-01-16T03:33:20;1.20;;;1.20;;
3943;SDS011;1986;52.546;13.428;2024-01-16T03:35:47;1.30;;;1.30;;
3943;SDS011;1986;52.546;13.428;2024-01-16T03:38:17;1.20;;;1.20;;
3943;SDS011;1986;52.546;13.428;2024-01-16T03:40:44;1.00;;;1.00;;
3943;SDS011;1986;52.546;13.428;2024-01-16T03:43:12;0.93;;;0.93;;
3943;SDS011;1986;52.546;13.428;2024-01-16T03:45:43;1.07;;;1.07;;
3943;SDS011;1986;52.546;13.428;2024-01-16T03:48:10;1.10;;;1.10;;
3943;SDS011;1986;52.546;13.428;2024-01-16T03:50:38;1.10;;;1.10;;
3943;SDS011;1986;52.546;13.428;2024-01-16T03:53:08;1.00;;;1.00;;
3943;SDS011;1986;52.546;13.428;2024-01-16T03:55:36;1.00;;;1.00;;
3943;SDS011;1986;52.546;13.428;2024-01-16T03:58:04;0.90;;;0.90;;
3943;SDS011;1986;52.546;13.428;2024-01-16T04:00:31;1.13;;;1.13;;
3943;SDS011;1986;52.546;13.428;2024-01-16T04:02:58;0.83;;;0.83;;
3943;SDS011;1986;52.546;13.428;2024-01-16T04:05:25;1.00;;;1.00;;
3943;SDS011;1986;52.546;13.428;2024-01-16T04:07:56;0.80;;;0.80;;
3943;SDS011;1986;52.546;13.428;2024-01-16T04:10:23;0.80;;;0.80;;
3943;SDS011;1986;52.546;13.428;2024-01-16T04:12:59;1.00;;;1.00;;
3943;SDS011;1986;52.546;13.428;2024-01-16T04:15:29;0.87;;;0.87;;
3943;SDS011;1986;52.546;13.428;2024-01-16T04:17:56;1.00;;;1.00;;
3943;SDS011;1986;52.546;13.428;2024-01-16T04:20:24;1.10;;;1.10;;
3943;SDS011;1986;52.546;13.428;2024-01-16T04:22:54;1.10;;;1.10;;
3943;SDS011;1986;52.546;13.428;2024-01-16T04:25:22;1.00;;;1.00;;
3943;SDS011;1986;52.546;13.428;2024-01-16T04:27:49;1.20;;;1.20;;
3943;SDS011;1986;52.546;13.428;2024-01-16T04:30:19;0.90;;;0.90;;
3943;SDS011;1986;52.546;13.428;2024-01-16T04:32:54;0.90;;;0.90;;
3943;SDS011;1986;52.546;13.428;2024-01-16T04:35:22;0.87;;;0.87;;
3943;SDS011;1986;52.546;13.428;2024-01-16T04:37:49;1.00;;;1.00;;
3943;SDS011;1986;52.546;13.428;2024-01-16T04:40:21;0.80;;;0.80;;
3943;SDS011;1986;52.546;13.428;2024-01-16T04:42:52;0.90;;;0.90;;
3943;SDS011;1986;52.546;13.428;2024-01-16T04:45:19;0.97;;;0.97;;
3943;SDS011;1986;52.546;13.428;2024-01-16T04:47:48;1.00;;;1.00;;
3943;SDS011;1986;52.546;13.428;2024-01-16T04:50:19;1.40;;;1.40;;
3943;SDS011;1986;52.546;13.428;2024-01-16T04:52:46;1.10;;;1.10;;
3943;SDS011;1986;52.546;13.428;2024-01-16T04:55:13;1.00;;;1.00;;
3943;SDS011;1986;52.546;13.428;2024-01-16T04:57:43;1.00;;;1.00;;
3943;SDS011;1986;52.546;13.428;2024-01-16T05:00:13;1.10;;;1.10;;
3943;SDS011;1986;52.546;13.428;2024-01-16T05:02:41;1.30;;;1.30;;
3943;SDS011;1986;52.546;13.428;2024-01-16T05:05:08;1.10;;;1.10;;
3943;SDS011;1986;52.546;13.428;2024-01-16T05:07:35;1.20;;;1.20;;
3943;SDS011;1986;52.546;13.428;2024-01-16T05:10:02;1.27;;;1.27;;
3943;SDS011;1986;52.546;13.428;2024-01-16T05:12:30;0.90;;;0.90;;
3943;SDS011;1986;52.546;13.428;2024-01-16T05:14:58;0.90;;;0.90;;
3943;SDS011;1986;52.546;13.428;2024-01-16T05:17:26;0.90;;;0.90;;
3943;SDS011;1986;52.546;13.428;2024-01-16T05:19:53;0.90;;;0.90;;
3943;SDS011;1986;52.546;13.428;2024-01-16T05:22:23;1.00;;;1.00;;
3943;SDS011;1986;52.546;13.428;2024-01-16T05:24:51;1.10;;;1.10;;
3943;SDS011;1986;52.546;13.428;2024-01-16T05:27:19;0.80;;;0.80;;
3943;SDS011;1986;52.546;13.428;2024-01-16T05:32:52;1.10;;;1.10;;
3943;SDS011;1986;52.546;13.428;2024-01-16T05:35:30;0.90;;;0.90;;
3943;SDS011;1986;52.546;13.428;2024-01-16T05:38:02;0.90;;;0.90;;
3943;SDS011;1986;52.546;13.428;2024-01-16T05:40:30;0.90;;;0.90;;
3943;SDS011;1986;52.546;13.428;2024-01-16T05:42:58;0.90;;;0.90;;
3943;SDS011;1986;52.546;13.428;2024-01-16T05:45:37;1.00;;;1.00;;
3943;SDS011;1986;52.546;13.428;2024-01-16T05:48:08;0.77;;;0.77;;
3943;SDS011;1986;52.546;13.428;2024-01-16T05:50:39;1.00;;;1.00;;
3943;SDS011;1986;52.546;13.428;2024-01-16T05:53:07;0.90;;;0.90;;
3943;SDS011;1986;52.546;13.428;2024-01-16T05:55:36;0.80;;;0.80;;
3943;SDS011;1986;52.546;13.428;2024-01-16T05:58:06;0.80;;;0.80;;
3943;SDS011;1986;52.546;13.428;2024-01-16T06:00:41;0.80;;;0.80;;
3943;SDS011;1986;52.546;13.428;2024-01-16T06:03:12;0.70;;;0.70;;
3943;SDS011;1986;52.546;13.428;2024-01-16T06:05:40;0.70;;;0.70;;
3943;SDS011;1986;52.546;13.428;2024-01-16T06:08:07;0.80;;;0.80;;
3943;SDS011;1986;52.546;13.428;2024-01-16T06:10:37;0.80;;;0.80;;
3943;SDS011;1986;52.546;13.428;2024-01-16T06:13:06;0.80;;;0.80;;
3943;SDS011;1986;52.546;13.428;2024-01-16T06:15:34;0.80;;;0.80;;
3943;SDS011;1986;52.546;13.428;2024-01-16T06:18:04;0.93;;;0.93;;
3943;SDS011;1986;52.546;13.428;2024-01-16T06:20:35;0.80;;;0.80;;
3943;SDS011;1986;52.546;13.428;2024-01-16T06:23:05;0.90;;;0.90;;
3943;SDS011;1986;52.546;13.428;2024-01-16T06:25:33;0.90;;;0.90;;
3943;SDS011;1986;52.546;13.428;2024-01-16T06:28:02;0.80;;;0.80;;
3943;SDS011;1986;52.546;13.428;2024-01-16T06:30:43;1.00;;;1.00;;
3943;SDS011;1986;52.546;13.428;2024-01-16T06:33:25;0.90;;;0.90;;
3943;SDS011;1986;52.546;13.428;2024-01-16T06:35:54;1.10;;;1.10;;
3943;SDS011;1986;52.546;13.428;2024-01-16T06:38:21;0.93;;;0.93;;
3943;SDS011;1986;52.546;13.428;2024-01-16T06:40:48;0.80;;;0.80;;
3943;SDS011;1986;52.546;13.428;2024-01-16T06:43:15;0.90;;;0.90;;
3943;SDS011;1986;52.546;13.428;2024-01-16T06:45:44;0.80;;;0.80;;
3943;SDS011;1986;52.546;13.428;2024-01-16T06:48:11;0.80;;;0.80;;
3943;SDS011;1986;52.546;13.428;2024-01-16T06:50:40;1.00;;;1.00;;
3943;SDS011;1986;52.546;13.428;2024-01-16T06:53:06;1.10;;;1.10;;
3943;SDS011;1986;52.546;13.428;2024-01-16T06:55:33;0.90;;;0.90;;
3943;SDS011;1986;52.546;13.428;2024-01-16T06:58:00;0.90;;;0.90;;
3943;SDS011;1986;52.546;13.428;2024-01-16T07:00:27;0.93;;;0.93;;
3943;SDS011;1986;52.546;13.428;2024-01-16T07:02:57;1.10;;;1.10;;
3943;SDS011;1986;52.546;13.428;2024-01-16T07:05:24;0.80;;;0.80;;
3943;SDS011;1986;52.546;13.428;2024-01-16T07:07:52;0.90;;;0.90;;
3943;SDS011;1986;52.546;13.428;2024-01-16T07:10:20;0.90;;;0.90;;
3943;SDS011;1986;52.546;13.428;2024-01-16T07:12:50;0.80;;;0.80;;
3943;SDS011;1986;52.546;13.428;2024-01-16T07:15:17;0.90;;;0.90;;
3943;SDS011;1986;52.546;13.428;2024-01-16T07:17:44;0.90;;;0.90;;
3943;SDS011;1986;52.546;13.428;2024-01-16T07:20:11;0.97;;;0.97;;
3943;SDS011;1986;52.546;13.428;2024-01-16T07:22:39;0.80;;;0.80;;
3943;SDS011;1986;52.546;13.428;2024-01-16T07:25:07;1.10;;;1.10;;
3943;SDS011;1986;52.546;13.428;2024-01-16T07:27:38;1.00;;;1.00;;
3943;SDS011;1986;52.546;13.428;2024-01-16T07:30:12;1.00;;;1.00;;
3943;SDS011;1986;52.546;13.428;2024-01-16T07:32:39;1.00;;;1.00;;
3943;SDS011;1986;52.546;13.428;2024-01-16T07:35:07;0.90;;;0.90;;
3943;SDS011;1986;52.546;13.428;2024-01-16T07:37:35;1.00;;;1.00;;
3943;SDS011;1986;52.546;13.428;2024-01-16T07:40:03;1.00;;;1.00;;
3943;SDS011;1986;52.546;13.428;2024-01-16T07:42:36;0.90;;;0.90;;
3943;SDS011;1986;52.546;13.428;2024-01-16T07:45:04;0.87;;;0.87;;
3943;SDS011;1986;52.546;13.428;2024-01-16T07:47:31;1.20;;;1.20;;
3943;SDS011;1986;52.546;13.428;2024-01-16T07:49:59;1.00;;;1.00;;
3943;SDS011;1986;52.546;13.428;2024-01-16T07:52:27;1.00;;;1.00;;
3943;SDS011;1986;52.546;13.428;2024-01-16T07:54:54;1.30;;;1.30;;
3943;SDS011;1986;52.546;13.428;2024-01-16T07:57:24;1.10;;;1.10;;
3943;SDS011;1986;52.546;13.428;2024-01-16T07:59:53;1.20;;;1.20;;
3943;SDS011;1986;52.546;13.428;2024-01-16T08:02:20;1.50;;;1.50;;
3943;SDS011;1986;52.546;13.428;2024-01-16T08:04:47;1.47;;;1.47;;
3943;SDS011;1986;52.546;13.428;2024-01-16T08:07:15;1.57;;;1.57;;
3943;SDS011;1986;52.546;13.428;2024-01-16T08:09:43;1.53;;;1.53;;
3943;SDS011;1986;52.546;13.428;2024-01-16T08:12:13;1.70;;;1.70;;
3943;SDS011;1986;52.546;13.428;2024-01-16T08:14:43;1.93;;;1.93;;
3943;SDS011;1986;52.546;13.428;2024-01-16T08:17:17;1.70;;;1.70;;
3943;SDS011;1986;52.546;13.428;2024-01-16T08:19:44;1.60;;;1.60;;
3943;SDS011;1986;52.546;13.428;2024-01-16T08:22:21;1.60;;;1.60;;
3943;SDS011;1986;52.546;13.428;2024-01-16T08:24:48;1.80;;;1.80;;
3943;SDS011;1986;52.546;13.428;2024-01-16T08:27:16;1.80;;;1.80;;
3943;SDS011;1986;52.546;13.428;2024-01-16T08:29:47;2.00;;;2.00;;
3943;SDS011;1986;52.546;13.428;2024-01-16T08:32:19;1.90;;;1.90;;
3943;SDS011;1986;52.546;13.428;2024-01-16T08:34:47;2.17;;;2.17;;
3943;SDS011;1986;52.546;13.428;2024-01-16T08:37:14;2.20;;;2.20;;
3943;SDS011;1986;52.546;13.428;2024-01-16T08:39:41;2.20;;;2.20;;
3943;SDS011;1986;52.546;13.428;2024-01-16T08:42:08;2.23;;;2.23;;
3943;SDS011;1986;52.546;13.428;2024-01-16T08:44:37;2.00;;;2.00;;
3943;SDS011;1986;52.546;13.428;2024-01-16T08:47:04;2.47;;;2.47;;
3943;SDS011;1986;52.546;13.428;2024-01-16T08:49:34;2.80;;;2.80;;
3943;SDS011;1986;52.546;13.428;2024-01-16T08:52:03;3.07;;;3.07;;
3943;SDS011;1986;52.546;13.428;2024-01-16T08:54:30;2.87;;;2.87;;
3943;SDS011;1986;52.546;13.428;2024-01-16T08:56:58;2.70;;;2.70;;
3943;SDS011;1986;52.546;13.428;2024-01-16T08:59:25;2.70;;;2.70;;
3943;SDS011;1986;52.546;13.428;2024-01-16T09:02:07;3.07;;;3.07;;
3943;SDS011;1986;52.546;13.428;2024-01-16T09:04:40;3.30;;;3.30;;
3943;SDS011;1986;52.546;13.428;2024-01-16T09:07:12;3.23;;;3.23;;
3943;SDS011;1986;52.546;13.428;2024-01-16T09:09:45;3.97;;;3.97;;
3943;SDS011;1986;52.546;13.428;2024-01-16T09:12:18;3.77;;;3.77;;
3943;SDS011;1986;52.546;13.428;2024-01-16T09:14:46;3.73;;;3.73;;
3943;SDS011;1986;52.546;13.428;2024-01-16T09:17:16;3.70;;;3.70;;
3943;SDS011;1986;52.546;13.428;2024-01-16T09:20:01;3.87;;;3.87;;
3943;SDS011;1986;52.546;13.428;2024-01-16T09:22:43;3.93;;;3.93;;
3943;SDS011;1986;52.546;13.428;2024-01-16T09:25:15;3.90;;;3.90;;
3943;SDS011;1986;52.546;13.428;2024-01-16T09:27:43;4.00;;;4.00;;
3943;SDS011;1986;52.546;13.428;2024-01-16T09:30:11;4.00;;;4.00;;
3943;SDS011;1986;52.546;13.428;2024-01-16T09:32:42;3.63;;;3.63;;
3943;SDS011;1986;52.546;13.428;2024-01-16T09:35:13;3.70;;;3.70;;
3943;SDS011;1986;52.546;13.428;2024-01-16T09:37:47;3.67;;;3.67;;
3943;SDS011;1986;52.546;13.428;2024-01-16T09:40:16;3.73;;;3.73;;
3943;SDS011;1986;52.546;13.428;2024-01-16T09:42:52;3.43;;;3.43;;
3943;SDS011;1986;52.546;13.428;2024-01-16T09:45:34;3.37;;;3.37;;
3943;SDS011;1986;52.546;13.428;2024-01-16T09:48:05;2.97;;;2.97;;
3943;SDS011;1986;52.546;13.428;2024-01-16T09:50:39;3.40;;;3.40;;
3943;SDS011;1986;52.546;13.428;2024-01-16T09:53:07;3.07;;;3.07;;
3943;SDS011;1986;52.546;13.428;2024-01-16T09:55:35;3.30;;;3.30;;
3943;SDS011;1986;52.546;13.428;2024-01-16T09:58:03;3.40;;;3.40;;
3943;SDS011;1986;52.546;13.428;2024-01-16T10:00:42;3.27;;;3.27;;
3943;SDS011;1986;52.546;13.428;2024-01-16T10:03:23;3.30;;;3.30;;
3943;SDS011;1986;52.546;13.428;2024-01-16T10:05:55;3.40;;;3.40;;
3943;SDS011;1986;52.546;13.428;2024-01-16T10:08:25;3.40;;;3.40;;
3943;SDS011;1986;52.546;13.428;2024-01-16T10:10:52;3.43;;;3.43;;
3943;SDS011;1986;52.546;13.428;2024-01-16T10:13:22;3.70;;;3.70;;
3943;SDS011;1986;52.546;13.428;2024-01-16T10:15:49;3.80;;;3.80;;
3943;SDS011;1986;52.546;13.428;2024-01-16T10:18:23;4.13;;;4.13;;
3943;SDS011;1986;52.546;13.428;2024-01-16T10:20:51;3.70;;;3.70;;
3943;SDS011;1986;52.546;13.428;2024-01-16T10:23:24;4.20;;;4.20;;
3943;SDS011;1986;52.546;13.428;2024-01-16T10:26:05;4.00;;;4.00;;
3943;SDS011;1986;52.546;13.428;2024-01-16T10:28:33;4.70;;;4.70;;
3943;SDS011;1986;52.546;13.428;2024-01-16T10:31:04;4.90;;;4.90;;
3943;SDS011;1986;52.546;13.428;2024-01-16T10:33:32;4.67;;;4.67;;
3943;SDS011;1986;52.546;13.428;2024-01-16T10:36:07;5.10;;;5.10;;
3943;SDS011;1986;52.546;13.428;2024-01-16T10:38:39;5.00;;;5.00;;
3943;SDS011;1986;52.546;13.428;2024-01-16T10:41:09;5.50;;;5.50;;
3943;SDS011;1986;52.546;13.428;2024-01-16T10:43:37;5.50;;;5.50;;
3943;SDS011;1986;52.546;13.428;2024-01-16T10:46:11;6.37;;;6.37;;
3943;SDS011;1986;52.546;13.428;2024-01-16T10:48:39;6.33;;;6.33;;
3943;SDS011;1986;52.546;13.428;2024-01-16T10:51:09;6.57;;;6.57;;
3943;SDS011;1986;52.546;13.428;2024-01-16T10:53:40;6.63;;;6.63;;
3943;SDS011;1986;52.546;13.428;2024-01-16T10:56:10;6.77;;;6.77;;
3943;SDS011;1986;52.546;13.428;2024-01-16T10:58:38;8.70;;;8.60;;
3943;SDS011;1986;52.546;13.428;2024-01-16T11:01:09;10.07;;;9.97;;
3943;SDS011;1986;52.546;13.428;2024-01-16T11:03:39;12.57;;;12.37;;
3943;SDS011;1986;52.546;13.428;2024-01-16T11:06:10;14.30;;;14.00;;
3943;SDS011;1986;52.546;13.428;2024-01-16T11:08:40;17.40;;;17.00;;
3943;SDS011;1986;52.546;13.428;2024-01-16T11:11:08;19.37;;;18.87;;
3943;SDS011;1986;52.546;13.428;2024-01-16T11:13:50;19.40;;;18.90;;
3943;SDS011;1986;52.546;13.428;2024-01-16T11:16:18;19.33;;;18.83;;
3943;SDS011;1986;52.546;13.428;2024-01-16T11:18:46;18.10;;;17.70;;
3943;SDS011;1986;52.546;13.428;2024-01-16T11:21:19;21.03;;;20.43;;
3943;SDS011;1986;52.546;13.428;2024-01-16T11:23:48;20.73;;;20.13;;
3943;SDS011;1986;52.546;13.428;2024-01-16T11:26:26;20.70;;;20.07;;
3943;SDS011;1986;52.546;13.428;2024-01-16T11:28:54;21.50;;;20.80;;
3943;SDS011;1986;52.546;13.428;2024-01-16T11:31:27;21.40;;;20.70;;
3943;SDS011;1986;52.546;13.428;2024-01-16T11:33:57;21.17;;;20.47;;
3943;SDS011;1986;52.546;13.428;2024-01-16T11:36:42;20.20;;;19.60;;
3943;SDS011;1986;52.546;13.428;2024-01-16T11:39:21;20.43;;;19.80;;
3943;SDS011;1986;52.546;13.428;2024-01-16T11:41:50;18.37;;;17.87;;
3943;SDS011;1986;52.546;13.428;2024-01-16T11:47:07;18.73;;;18.13;;
3943;SDS011;1986;52.546;13.428;2024-01-16T11:49:35;18.87;;;18.27;;
3943;SDS011;1986;52.546;13.428;2024-01-16T11:52:02;20.27;;;19.50;;
3943;SDS011;1986;52.546;13.428;2024-01-16T11:54:34;20.20;;;19.50;;
3943;SDS011;1986;52.546;13.428;2024-01-16T11:57:21;20.00;;;19.30;;
3943;SDS011;1986;52.546;13.428;2024-01-16T12:00:18;20.70;;;20.00;;
3943;SDS011;1986;52.546;13.428;2024-01-16T12:02:49;20.77;;;20.07;;
3943;SDS011;1986;52.546;13.428;2024-01-16T12:05:20;21.50;;;20.80;;
3943;SDS011;1986;52.546;13.428;2024-01-16T12:07:50;21.47;;;20.77;;
3943;SDS011;1986;52.546;13.428;2024-01-16T12:10:27;21.80;;;21.00;;
3943;SDS011;1986;52.546;13.428;2024-01-16T12:12:56;22.33;;;21.33;;
3943;SDS011;1986;52.546;13.428;2024-01-16T12:15:25;23.13;;;22.03;;
3943;SDS011;1986;52.546;13.428;2024-01-16T12:17:53;22.53;;;21.53;;
3943;SDS011;1986;52.546;13.428;2024-01-16T12:20:22;23.40;;;22.30;;
3943;SDS011;1986;52.546;13.428;2024-01-16T12:22:57;23.13;;;22.13;;
3943;SDS011;1986;52.546;13.428;2024-01-16T12:25:28;22.93;;;21.93;;
3943;SDS011;1986;52.546;13.428;2024-01-16T12:27:57;23.23;;;22.23;;
3943;SDS011;1986;52.546;13.428;2024-01-16T12:30:25;24.53;;;23.33;;
3943;SDS011;1986;52.546;13.428;2024-01-16T12:33:02;25.87;;;24.57;;
3943;SDS011;1986;52.546;13.428;2024-01-16T12:35:33;26.00;;;24.67;;
3943;SDS011;1986;52.546;13.428;2024-01-16T12:38:04;26.77;;;25.47;;
3943;SDS011;1986;52.546;13.428;2024-01-16T12:40:37;26.13;;;24.83;;
3943;SDS011;1986;52.546;13.428;2024-01-16T12:43:08;26.00;;;24.60;;
3943;SDS011;1986;52.546;13.428;2024-01-16T12:45:35;25.90;;;24.50;;
3943;SDS011;1986;52.546;13.428;2024-01-16T12:48:03;26.07;;;24.67;;
3943;SDS011;1986;52.546;13.428;2024-01-16T12:50:31;26.20;;;24.80;;
3943;SDS011;1986;52.546;13.428;2024-01-16T12:53:03;24.50;;;23.20;;
3943;SDS011;1986;52.546;13.428;2024-01-16T12:55:31;25.40;;;24.00;;
3943;SDS011;1986;52.546;13.428;2024-01-16T13:01:25;26.13;;;24.73;;
3943;SDS011;1986;52.546;13.428;2024-01-16T13:03:54;26.33;;;24.93;;
3943;SDS011;1986;52.546;13.428;2024-01-16T13:06:26;27.17;;;25.67;;
3943;SDS011;1986;52.546;13.428;2024-01-16T13:09:03;27.00;;;25.60;;
3943;SDS011;1986;52.546;13.428;2024-01-16T13:11:45;27.07;;;25.67;;
3943;SDS011;1986;52.546;13.428;2024-01-16T13:14:31;26.80;;;25.40;;
3943;SDS011;1986;52.546;13.428;2024-01-16T13:21:42;24.60;;;23.20;;
3943;SDS011;1986;52.546;13.428;2024-01-16T13:24:51;26.40;;;24.90;;
3943;SDS011;1986;52.546;13.428;2024-01-16T13:27:54;25.57;;;24.17;;
3943;SDS011;1986;52.546;13.428;2024-01-16T13:30:40;26.10;;;24.70;;
3943;SDS011;1986;52.546;13.428;2024-01-16T13:33:39;25.30;;;24.00;;
3943;SDS011;1986;52.546;13.428;2024-01-16T13:36:22;25.63;;;24.30;;
3943;SDS011;1986;52.546;13.428;2024-01-16T13:39:05;25.20;;;23.90;;
3943;SDS011;1986;52.546;13.428;2024-01-16T13:41:38;25.90;;;24.50;;
3943;SDS011;1986;52.546;13.428;2024-01-16T13:44:17;24.77;;;23.37;;
3943;SDS011;1986;52.546;13.428;2024-01-16T13:47:05;25.03;;;23.73;;
3943;SDS011;1986;52.546;13.428;2024-01-16T13:49:51;25.83;;;24.50;;
3943;SDS011;1986;52.546;13.428;2024-01-16T13:52:29;27.53;;;26.13;;
3943;SDS011;1986;52.546;13.428;2024-01-16T13:55:43;27.50;;;26.10;;
3943;SDS011;1986;52.546;13.428;2024-01-16T13:58:24;26.40;;;25.00;;
3943;SDS011;1986;52.546;13.428;2024-01-16T14:01:07;26.30;;;24.90;;
3943;SDS011;1986;52.546;13.428;2024-01-16T14:03:42;26.23;;;24.93;;
3943;SDS011;1986;52.546;13.428;2024-01-16T14:06:27;26.23;;;24.93;;
3943;SDS011;1986;52.546;13.428;2024-01-16T14:09:04;26.77;;;25.37;;
3943;SDS011;1986;52.546;13.428;2024-01-16T14:18:04;23.40;;;22.30;;
3943;SDS011;1986;52.546;13.428;2024-01-16T14:20:40;23.80;;;22.70;;
3943;SDS011;1986;52.546;13.428;2024-01-16T14:23:13;23.40;;;22.30;;
3943;SDS011;1986;52.546;13.428;2024-01-16T14:26:20;22.60;;;21.60;;
3943;SDS011;1986;52.546;13.428;2024-01-16T14:28:50;22.60;;;21.60;;
3943;SDS011;1986;52.546;13.428;2024-01-16T14:31:25;22.40;;;21.40;;
3943;SDS011;1986;52.546;13.428;2024-01-16T14:34:09;21.73;;;20.83;;
3943;SDS011;1986;52.546;13.428;2024-01-16T14:36:41;22.53;;;21.53;;
3943;SDS011;1986;52.546;13.428;2024-01-16T14:39:19;23.13;;;22.13;;
3943;SDS011;1986;52.546;13.428;2024-01-16T14:42:04;23.20;;;22.20;;
3943;SDS011;1986;52.546;13.428;2024-01-16T14:44:39;23.27;;;22.30;;
3943;SDS011;1986;52.546;13.428;2024-01-16T14:47:11;22.77;;;21.87;;
3943;SDS011;1986;52.546;13.428;2024-01-16T14:49:59;20.97;;;20.17;;
3943;SDS011;1986;52.546;13.428;2024-01-16T14:52:29;19.30;;;18.60;;
3943;SDS011;1986;52.546;13.428;2024-01-16T14:55:04;17.90;;;17.30;;
3943;SDS011;1986;52.546;13.428;2024-01-16T14:57:45;17.07;;;16.57;;
3943;SDS011;1986;52.546;13.428;2024-01-16T15:00:48;17.20;;;16.70;;
3943;SDS011;1986;52.546;13.428;2024-01-16T15:03:30;17.13;;;16.63;;
3943;SDS011;1986;52.546;13.428;2024-01-16T15:06:13;17.00;;;16.50;;
3943;SDS011;1986;52.546;13.428;2024-01-16T15:08:44;16.70;;;16.20;;
3943;SDS011;1986;52.546;13.428;2024-01-16T15:11:15;16.43;;;16.03;;
3943;SDS011;1986;52.546;13.428;2024-01-16T15:13:57;16.50;;;16.10;;
3943;SDS011;1986;52.546;13.428;2024-01-16T15:16:41;17.30;;;16.80;;
3943;SDS011;1986;52.546;13.428;2024-01-16T15:22:35;15.30;;;15.00;;
3943;SDS011;1986;52.546;13.428;2024-01-16T15:25:11;14.20;;;14.00;;
3943;SDS011;1986;52.546;13.428;2024-01-16T15:27:41;14.60;;;14.30;;
3943;SDS011;1986;52.546;13.428;2024-01-16T15:30:22;14.63;;;14.40;;
3943;SDS011;1986;52.546;13.428;2024-01-16T15:33:06;14.30;;;14.10;;
3943;SDS011;1986;52.546;13.428;2024-01-16T15:36:02;12.43;;;12.33;;
3943;SDS011;1986;52.546;13.428;2024-01-16T15:39:22;13.68;;;13.48;;
3943;SDS011;1986;52.546;13.428;2024-01-16T15:42:05;11.40;;;11.30;;